Time;durP1;ratioP1;P1;durP2;ratioP2;P2;SDS_P1;SDS_P2;PMS_P1;PMS_P2;Temp;Humidity;BMP_temperature;BMP_pressure;BME280_temperature;BME280_humidity;BME280_pressure;Samples;Min_cycle;Max_cycle;Signal;HPM_P1;HPM_P2
2023/06/19 00:02:23;;;;;;;21.30;19.30;;;;;;;16.54;66.32;100349.92;108650;1284;23061;-86
2023/06/19 00:05:14;;;;;;;20.80;17.80;;;;;;;16.51;66.37;100349.59;108587;1280;22026;-87
2023/06/19 00:07:46;;;;;;;20.10;18.00;;;;;;;16.48;66.50;100348.76;108834;1280;22065;-85
2023/06/19 00:10:28;;;;;;;21.20;19.30;;;;;;;16.46;66.68;100349.77;108801;1280;22769;-84
2023/06/19 00:13:19;;;;;;;21.30;19.30;;;;;;;16.45;67.07;100347.73;109204;1271;23752;-86
2023/06/19 00:15:49;;;;;;;19.10;17.50;;;;;;;16.43;67.05;100348.04;110119;1267;22728;-86
2023/06/19 00:18:19;;;;;;;20.10;18.40;;;;;;;16.36;66.95;100343.73;109581;1271;22901;-86
2023/06/19 00:20:50;;;;;;;22.00;19.80;;;;;;;16.38;67.00;100352.19;109691;1270;21997;-87
2023/06/19 00:23:24;;;;;;;20.10;18.10;;;;;;;16.34;66.97;100351.06;109495;1271;21971;-85
2023/06/19 00:25:56;;;;;;;21.60;19.70;;;;;;;16.31;67.15;100354.91;109607;1270;21987;-84
2023/06/19 00:28:29;;;;;;;24.10;21.90;;;;;;;16.27;67.36;100356.88;109701;1270;22002;-84
2023/06/19 00:31:06;;;;;;;25.40;23.00;;;;;;;16.22;67.55;100360.17;109732;1270;21983;-85
2023/06/19 00:33:37;;;;;;;23.90;21.90;;;;;;;16.16;67.67;100360.19;109713;1270;21995;-85
2023/06/19 00:36:20;;;;;;;25.20;22.80;;;;;;;16.12;68.03;100360.30;109996;1266;21980;-86
2023/06/19 00:39:19;;;;;;;25.00;22.70;;;;;;;16.09;68.53;100360.48;108042;1265;2713876;-87
2023/06/19 00:41:57;;;;;;;22.70;20.70;;;;;;;16.10;68.68;100361.44;109690;1273;21991;-86
2023/06/19 00:44:40;;;;;;;24.80;22.70;;;;;;;16.11;68.78;100361.02;109423;1273;23135;-86
2023/06/19 00:47:28;;;;;;;23.10;21.00;;;;;;;16.11;68.78;100364.38;109554;1273;22009;-86
2023/06/19 00:50:09;;;;;;;26.20;23.90;;;;;;;16.09;68.62;100361.73;109384;1273;21978;-85
2023/06/19 00:52:40;;;;;;;23.00;21.00;;;;;;;16.06;68.72;100363.09;109325;1273;22062;-85
2023/06/19 00:55:36;;;;;;;24.00;21.80;;;;;;;16.04;68.69;100359.20;109197;1279;22499;-85
2023/06/19 00:58:10;;;;;;;22.80;20.50;;;;;;;16.01;68.70;100357.09;109172;1279;21998;-86
2023/06/19 01:01:08;;;;;;;21.10;19.30;;;;;;;15.96;68.76;100351.23;109486;1272;22379;-88
2023/06/19 01:03:42;;;;;;;20.00;18.30;;;;;;;15.93;68.89;100348.77;109008;1278;22036;-87
2023/06/19 01:06:38;;;;;;;22.20;20.10;;;;;;;15.90;68.83;100349.81;108743;1285;23778;-85
2023/06/19 01:09:20;;;;;;;23.80;21.50;;;;;;;15.85;68.71;100348.92;108718;1285;22042;-86
2023/06/19 01:12:04;;;;;;;20.90;18.90;;;;;;;15.82;68.83;100349.41;108531;1285;22101;-86
2023/06/19 01:14:59;;;;;;;21.10;19.30;;;;;;;15.80;68.90;100347.43;108887;1278;22749;-87
2023/06/19 01:17:30;;;;;;;21.80;19.70;;;;;;;15.76;68.89;100345.06;109189;1278;21987;-86
2023/06/19 01:20:10;;;;;;;21.60;19.60;;;;;;;15.75;68.93;100344.96;108981;1278;21965;-87
2023/06/19 01:22:43;;;;;;;21.50;19.60;;;;;;;15.72;69.07;100347.71;109075;1276;23657;-86
2023/06/19 01:25:18;;;;;;;21.70;19.50;;;;;;;15.69;68.98;100347.74;109695;1270;23036;-85
2023/06/19 01:28:02;;;;;;;23.00;20.80;;;;;;;15.62;69.01;100344.79;109407;1270;21981;-85
2023/06/19 01:30:43;;;;;;;22.80;20.50;;;;;;;15.62;68.96;100346.39;109546;1270;22145;-87
2023/06/19 01:33:26;;;;;;;22.50;20.50;;;;;;;15.54;69.07;100334.95;109422;1270;21989;-86
2023/06/19 01:36:03;;;;;;;23.20;20.80;;;;;;;15.54;69.16;100339.30;109313;1276;21995;-85
2023/06/19 01:38:39;;;;;;;23.20;21.10;;;;;;;15.50;69.23;100339.85;109203;1276;22005;-86
2023/06/19 01:41:11;;;;;;;25.30;23.00;;;;;;;15.49;69.12;100342.90;109395;1271;21979;-86
2023/06/19 01:43:45;;;;;;;23.90;21.80;;;;;;;15.33;69.15;100321.06;109602;1271;24399;-86
2023/06/19 01:46:14;;;;;;;22.90;20.80;;;;;;;15.40;69.08;100335.91;109637;1270;22018;-85
2023/06/19 01:48:43;;;;;;;22.10;19.80;;;;;;;15.38;69.06;100335.66;109629;1269;22001;-87
2023/06/19 01:51:14;;;;;;;22.80;20.70;;;;;;;15.36;69.21;100335.47;109716;1270;22058;-84
2023/06/19 01:53:42;;;;;;;22.70;20.20;;;;;;;15.27;69.17;100324.23;109517;1267;23056;-82
2023/06/19 01:56:11;;;;;;;24.20;21.80;;;;;;;15.24;69.30;100325.13;110231;1262;23976;-83
2023/06/19 01:58:45;;;;;;;23.30;21.20;;;;;;;15.25;69.39;100332.20;109810;1270;22364;-84
2023/06/19 02:01:15;;;;;;;23.80;21.60;;;;;;;15.22;69.54;100331.14;109556;1275;22013;-86
2023/06/19 02:03:56;;;;;;;24.10;21.90;;;;;;;15.20;69.63;100332.69;109358;1275;22038;-85
2023/06/19 02:06:34;;;;;;;22.30;20.40;;;;;;;15.17;69.80;100335.85;109432;1275;21987;-84
2023/06/19 02:09:04;;;;;;;23.40;21.40;;;;;;;15.14;69.66;100337.55;108796;1280;23809;-83
2023/06/19 02:11:48;;;;;;;23.40;21.40;;;;;;;15.08;69.60;100342.64;108642;1285;22037;-81
2023/06/19 02:14:18;;;;;;;23.70;21.60;;;;;;;15.01;69.77;100332.86;108682;1285;22015;-82
2023/06/19 02:16:48;;;;;;;26.30;23.70;;;;;;;15.04;69.95;100342.17;108698;1285;22422;-83
2023/06/19 02:19:18;;;;;;;26.60;24.20;;;;;;;15.00;70.25;100335.73;108803;1280;22874;-84
2023/06/19 02:21:47;;;;;;;27.80;25.20;;;;;;;14.98;70.54;100340.58;108733;1280;21990;-83
2023/06/19 02:24:26;;;;;;;29.90;27.20;;;;;;;14.96;70.80;100344.75;109087;1276;21982;-83
2023/06/19 02:26:58;;;;;;;29.90;27.10;;;;;;;14.97;70.92;100347.45;109292;1271;22969;-82
2023/06/19 02:29:33;;;;;;;27.30;25.00;;;;;;;15.04;70.90;100353.59;109390;1272;23748;-82
2023/06/19 02:32:09;;;;;;;25.40;22.80;;;;;;;15.03;71.03;100348.00;109400;1268;23081;-82
2023/06/19 02:34:40;;;;;;;25.70;23.30;;;;;;;15.03;70.84;100349.59;109476;1271;23811;-82
2023/06/19 02:37:10;;;;;;;25.20;22.80;;;;;;;14.99;71.02;100343.86;109138;1276;22424;-83
2023/06/19 02:39:50;;;;;;;25.80;23.20;;;;;;;15.01;71.13;100349.67;108992;1276;22992;-84
2023/06/19 02:42:24;;;;;;;30.60;28.00;;;;;;;15.00;71.08;100352.89;108856;1280;23853;-85
2023/06/19 02:44:53;;;;;;;;;;;;;;;15.00;71.04;100350.61;108860;1280;22992;-84
2023/06/19 02:47:47;;;;;;;25.10;22.80;;;;;;;14.92;71.39;100353.20;108502;1285;24390;-86
2023/06/19 02:50:19;;;;;;;31.60;28.40;;;;;;;14.87;71.06;100359.05;108388;1286;22022;-84
2023/06/19 02:52:50;;;;;;;31.50;28.50;;;;;;;14.83;71.14;100360.15;108576;1286;23145;-83
2023/06/19 02:55:19;;;;;;;39.20;35.70;;;;;;;14.82;71.56;100357.58;108478;1285;22000;-83
2023/06/19 02:57:48;;;;;;;37.40;34.10;;;;;;;14.86;71.72;100363.16;108675;1285;22040;-85
2023/06/19 03:00:17;;;;;;;45.10;41.40;;;;;;;14.91;71.80;100360.41;108371;1290;22006;-84
2023/06/19 03:02:57;;;;;;;31.70;29.10;;;;;;;14.96;71.78;100361.35;108157;1281;22085;-85
2023/06/19 03:05:29;;;;;;;30.00;27.00;;;;;;;14.99;71.86;100361.39;108279;1283;23551;-85
2023/06/19 03:08:05;;;;;;;29.80;26.50;;;;;;;15.01;71.72;100363.02;108577;1283;22421;-84
2023/06/19 03:10:42;;;;;;;28.10;25.70;;;;;;;15.03;71.59;100361.31;108841;1283;22022;-83
2023/06/19 03:13:53;;;;;;;32.80;29.90;;;;;;;15.07;71.44;100361.48;108954;1278;21982;-84
2023/06/19 03:16:22;;;;;;;49.60;45.40;;;;;;;15.03;71.47;100361.67;108811;1282;23114;-85
2023/06/19 03:18:54;;;;;;;51.20;46.80;;;;;;;15.02;71.37;100361.59;109067;1277;22037;-84
2023/06/19 03:21:29;;;;;;;42.80;39.10;;;;;;;15.03;71.53;100358.72;109373;1271;23033;-84
2023/06/19 03:24:10;;;;;;;52.60;48.00;;;;;;;15.05;71.66;100358.92;109550;1271;21988;-82
2023/06/19 03:26:42;;;;;;;75.10;68.90;;;;;;;15.12;71.64;100359.41;109532;1271;22007;-84
2023/06/19 03:29:17;;;;;;;63.40;58.00;;;;;;;15.14;71.44;100361.05;108930;1276;23112;-84
2023/06/19 03:32:01;;;;;;;61.40;56.00;;;;;;;15.12;71.51;100359.59;108836;1280;22004;-83
2023/06/19 03:34:35;;;;;;;54.90;50.00;;;;;;;15.11;71.74;100357.93;108960;1276;22211;-85
2023/06/19 03:37:09;;;;;;;54.90;50.10;;;;;;;15.08;71.77;100352.32;108969;1276;21987;-85
2023/06/19 03:39:45;;;;;;;40.80;37.40;;;;;;;15.16;72.00;100356.40;109359;1276;22007;-84
2023/06/19 03:42:21;;;;;;;44.30;40.50;;;;;;;15.23;71.96;100357.38;109229;1276;21990;-84
2023/06/19 03:45:00;;;;;;;44.90;40.60;;;;;;;15.29;71.81;100359.52;109137;1276;21991;-82
2023/06/19 03:47:31;;;;;;;47.80;43.80;;;;;;;15.34;71.83;100357.10;109201;1272;21979;-81
2023/06/19 03:50:04;;;;;;;50.50;46.40;;;;;;;15.39;71.82;100356.63;109699;1272;22041;-80
2023/06/19 03:52:53;;;;;;;58.00;53.20;;;;;;;15.47;71.84;100358.81;109640;1271;21977;-84
2023/06/19 03:55:22;;;;;;;56.90;51.70;;;;;;;15.56;71.79;100359.02;109634;1271;22003;-83
2023/06/19 03:57:55;;;;;;;58.90;54.30;;;;;;;15.62;71.61;100360.61;110091;1266;23380;-86
2023/06/19 04:00:34;;;;;;;58.50;53.60;;;;;;;15.66;71.59;100355.30;110481;1266;21973;-84
2023/06/19 04:03:03;;;;;;;48.90;45.00;;;;;;;15.71;71.48;100358.52;110374;1263;22018;-82
2023/06/19 04:05:34;;;;;;;52.00;47.40;;;;;;;15.78;71.54;100361.40;110503;1267;21973;-83
2023/06/19 04:08:09;;;;;;;50.30;46.20;;;;;;;15.84;71.53;100361.25;110081;1271;21991;-82
2023/06/19 04:10:41;;;;;;;49.10;44.90;;;;;;;15.91;71.47;100357.84;109314;1275;22003;-83
2023/06/19 04:13:25;;;;;;;45.70;41.90;;;;;;;16.02;71.42;100361.77;109313;1275;22070;-84
2023/06/19 04:15:59;;;;;;;43.10;39.50;;;;;;;16.12;71.33;100361.50;109449;1274;21983;-85
2023/06/19 04:18:29;;;;;;;39.60;36.40;;;;;;;16.23;70.93;100367.02;109324;1275;24299;-83
2023/06/19 04:21:07;;;;;;;44.20;40.40;;;;;;;16.28;70.62;100371.56;109098;1279;24057;-84
2023/06/19 04:23:36;;;;;;;46.10;42.00;;;;;;;16.34;70.45;100370.85;108745;1280;22540;-85
2023/06/19 04:26:13;;;;;;;49.90;46.00;;;;;;;16.38;70.26;100363.59;108477;1288;22000;-84
2023/06/19 04:28:46;;;;;;;41.90;38.30;;;;;;;16.46;70.44;100363.44;108731;1282;22531;-84
2023/06/19 04:31:26;;;;;;;42.10;38.80;;;;;;;16.59;70.32;100364.79;109178;1282;22784;-87
2023/06/19 04:33:59;;;;;;;39.20;36.00;;;;;;;16.75;70.21;100366.73;108949;1269;21996;-86
2023/06/19 04:36:53;;;;;;;35.70;32.80;;;;;;;16.87;69.98;100374.45;108790;1282;23742;-86
2023/06/19 04:39:47;;;;;;;39.20;36.00;;;;;;;17.01;69.63;100374.48;108905;1282;22071;-85
2023/06/19 04:46:04;;;;;;;37.70;34.70;;;;;;;17.36;69.14;100370.80;108365;1288;21995;-85
2023/06/19 04:48:42;;;;;;;38.70;35.60;;;;;;;17.62;69.19;100372.41;108446;1287;22065;-86
2023/06/19 04:51:14;;;;;;;40.00;36.70;;;;;;;17.92;68.93;100376.77;108519;1287;21985;-82
2023/06/19 04:53:46;;;;;;;43.00;39.30;;;;;;;18.24;68.41;100380.38;108610;1286;22030;-87
2023/06/19 04:56:26;;;;;;;39.40;36.20;;;;;;;18.58;68.03;100381.30;108792;1287;21985;-83
2023/06/19 04:59:18;;;;;;;41.30;37.70;;;;;;;19.08;68.00;100381.15;108666;1280;23077;-86
2023/06/19 05:01:54;;;;;;;53.30;49.00;;;;;;;19.53;67.19;100380.24;108826;1281;22069;-81
2023/06/19 05:04:32;;;;;;;55.30;50.90;;;;;;;20.02;66.45;100372.17;109200;1278;22011;-87
2023/06/19 05:07:14;;;;;;;58.30;53.30;;;;;;;20.56;65.06;100384.94;109174;1278;22006;-87
2023/06/19 05:09:46;;;;;;;61.20;56.60;;;;;;;21.05;63.30;100376.48;109163;1278;21907;-87
2023/06/19 05:12:17;;;;;;;61.50;56.70;;;;;;;21.40;62.11;100377.31;109079;1278;22182;-86
2023/06/19 05:14:49;;;;;;;58.80;54.20;;;;;;;21.74;60.70;100379.96;108850;1283;22040;-84
2023/06/19 05:17:24;;;;;;;56.00;51.70;;;;;;;21.95;58.92;100379.67;108882;1287;22987;-84
2023/06/19 05:19:55;;;;;;;53.40;49.10;;;;;;;22.16;58.36;100379.83;108428;1289;23011;-83
2023/06/19 05:22:31;;;;;;;49.90;45.50;;;;;;;22.34;57.52;100379.52;108490;1279;22256;-83
2023/06/19 05:25:08;;;;;;;47.40;43.80;;;;;;;22.50;56.73;100379.24;109134;1271;21861;-83
2023/06/19 05:27:44;;;;;;;43.10;40.00;;;;;;;22.63;56.24;100375.62;108710;1285;21966;-82
2023/06/19 05:30:17;;;;;;;42.60;39.10;;;;;;;22.75;55.19;100374.73;108859;1285;21865;-82
2023/06/19 05:32:48;;;;;;;36.10;33.20;;;;;;;22.92;55.99;100377.63;108790;1283;22001;-83
2023/06/19 05:35:30;;;;;;;33.40;30.70;;;;;;;23.15;54.99;100373.64;108920;1278;21985;-82
2023/06/19 05:38:05;;;;;;;30.80;27.90;;;;;;;23.31;54.52;100380.34;108984;1278;21992;-83
2023/06/19 05:40:37;;;;;;;27.40;25.20;;;;;;;23.51;53.87;100383.52;108979;1278;22024;-81
2023/06/19 05:43:06;;;;;;;27.60;24.90;;;;;;;23.66;53.13;100384.08;108609;1284;22926;-82
2023/06/19 05:45:36;;;;;;;25.40;23.30;;;;;;;23.80;52.67;100382.15;108856;1277;21994;-84
2023/06/19 05:48:15;;;;;;;25.90;23.60;;;;;;;23.94;52.85;100384.04;109119;1277;22485;-82
2023/06/19 05:50:47;;;;;;;24.10;22.10;;;;;;;24.19;52.45;100384.33;109000;1277;22004;-82
2023/06/19 05:53:25;;;;;;;21.80;20.10;;;;;;;24.48;52.26;100383.39;109135;1274;21982;-82
2023/06/19 05:55:58;;;;;;;18.70;16.80;;;;;;;24.84;51.09;100388.11;109579;1274;23980;-83
2023/06/19 05:58:33;;;;;;;20.00;18.30;;;;;;;25.10;50.23;100388.89;109524;1274;21990;-81
2023/06/19 06:01:07;;;;;;;17.70;16.20;;;;;;;25.42;49.10;100391.46;109403;1267;21990;-82
2023/06/19 06:03:43;;;;;;;17.50;16.00;;;;;;;25.53;47.64;100396.14;109447;1273;22535;-82
2023/06/19 06:06:13;;;;;;;17.00;15.70;;;;;;;25.66;47.57;100401.79;108932;1274;21951;-82
2023/06/19 06:08:45;;;;;;;11.00;10.20;;;;;;;25.83;46.72;100402.58;109500;1273;22449;-81
2023/06/19 06:11:22;;;;;;;12.40;11.40;;;;;;;25.91;45.91;100402.96;109606;1273;21979;-82
2023/06/19 06:14:00;;;;;;;13.70;12.40;;;;;;;25.99;45.59;100402.02;109265;1274;22022;-83
2023/06/19 06:16:37;;;;;;;14.70;13.40;;;;;;;26.15;45.16;100409.81;109512;1274;23033;-82
2023/06/19 06:19:12;;;;;;;13.80;12.70;;;;;;;26.42;45.38;100407.79;109682;1273;22007;-87
2023/06/19 06:21:46;;;;;;;13.20;11.90;;;;;;;26.72;44.75;100407.64;109524;1274;22016;-83
2023/06/19 06:24:34;;;;;;;13.70;12.50;;;;;;;26.96;43.86;100410.27;110098;1267;22434;-85
2023/06/19 06:27:16;;;;;;;11.50;10.20;;;;;;;27.17;43.18;100419.54;110107;1270;23119;-88
2023/06/19 06:29:47;;;;;;;10.20;9.30;;;;;;;27.25;42.63;100420.71;109797;1270;22999;-80
2023/06/19 06:32:20;;;;;;;9.00;8.20;;;;;;;27.38;42.10;100422.84;109578;1270;21968;-80
2023/06/19 06:35:29;;;;;;;9.90;8.90;;;;;;;27.58;41.67;100423.92;109601;1268;23032;-80
2023/06/19 06:37:58;;;;;;;9.30;8.60;;;;;;;27.78;40.72;100429.26;109853;1270;23051;-80
2023/06/19 06:40:36;;;;;;;8.90;8.20;;;;;;;27.86;40.34;100427.51;109627;1270;23729;-79
2023/06/19 06:43:09;;;;;;;10.50;9.30;;;;;;;28.01;40.28;100426.02;109727;1270;23014;-78
2023/06/19 06:45:41;;;;;;;9.30;8.50;;;;;;;28.15;39.41;100429.31;109714;1270;23031;-79
2023/06/19 06:48:16;;;;;;;8.40;7.70;;;;;;;28.22;39.36;100428.74;109151;1276;23167;-80
2023/06/19 06:50:47;;;;;;;8.30;7.60;;;;;;;28.36;39.07;100429.44;108968;1276;22654;-80
2023/06/19 06:53:31;;;;;;;7.70;7.00;;;;;;;28.50;38.35;100431.83;109005;1280;22001;-80
2023/06/19 06:56:21;;;;;;;9.10;8.30;;;;;;;28.48;37.79;100431.05;108480;1286;23119;-81
2023/06/19 06:59:03;;;;;;;8.70;7.90;;;;;;;28.51;37.75;100431.42;108636;1282;23133;-79
2023/06/19 07:01:34;;;;;;;8.50;7.90;;;;;;;28.60;37.65;100433.64;108763;1282;22036;-81
2023/06/19 07:04:08;;;;;;;8.00;7.30;;;;;;;28.72;37.30;100435.11;108534;1285;23496;-80
2023/06/19 07:06:55;;;;;;;7.20;6.50;;;;;;;28.81;36.72;100433.98;108557;1284;22414;-81
2023/06/19 07:09:27;;;;;;;7.50;6.90;;;;;;;28.91;36.47;100438.14;108611;1280;21998;-80
2023/06/19 07:11:56;;;;;;;9.30;7.20;;;;;;;29.03;36.29;100436.64;108425;1287;22050;-80
2023/06/19 07:14:26;;;;;;;8.30;7.60;;;;;;;29.11;35.99;100435.88;108636;1283;22069;-81
2023/06/19 07:17:06;;;;;;;8.00;7.20;;;;;;;29.14;35.77;100440.05;108389;1287;23226;-79
2023/06/19 07:19:42;;;;;;;8.40;7.10;;;;;;;29.12;35.38;100439.33;108378;1287;22004;-78
2023/06/19 07:22:17;;;;;;;8.10;7.40;;;;;;;29.10;35.59;100438.27;108349;1287;23983;-81
2023/06/19 07:24:58;;;;;;;8.70;8.00;;;;;;;29.16;35.71;100438.23;108025;1291;22249;-80
2023/06/19 07:27:47;;;;;;;10.50;7.50;;;;;;;29.21;34.96;100438.44;108579;1280;22022;-79
2023/06/19 07:30:34;;;;;;;9.60;8.70;;;;;;;29.21;34.99;100441.33;108834;1277;22077;-82
2023/06/19 07:33:08;;;;;;;13.60;9.00;;;;;;;29.29;35.24;100437.39;108887;1280;21995;-81
2023/06/19 07:35:49;;;;;;;9.70;7.40;;;;;;;29.43;35.19;100436.83;108558;1286;22130;-81
2023/06/19 07:38:38;;;;;;;10.20;7.70;;;;;;;29.47;34.81;100436.98;108459;1290;23647;-78
2023/06/19 07:41:09;;;;;;;10.10;8.90;;;;;;;29.57;34.48;100441.32;108268;1289;22364;-79
2023/06/19 07:43:59;;;;;;;10.90;8.90;;;;;;;29.60;34.22;100439.69;108014;1287;22016;-79
2023/06/19 07:46:39;;;;;;;11.60;8.50;;;;;;;29.70;34.19;100439.04;108398;1286;23641;-79
2023/06/19 07:49:22;;;;;;;8.40;7.70;;;;;;;29.79;34.21;100436.34;108414;1289;23663;-81
2023/06/19 07:52:04;;;;;;;13.50;12.10;;;;;;;29.96;34.04;100433.39;108532;1283;22030;-86
2023/06/19 07:55:04;;;;;;;9.20;7.90;;;;;;;30.09;33.36;100430.40;108851;1284;22006;-84
2023/06/19 07:57:52;;;;;;;9.70;8.10;;;;;;;29.97;32.96;100431.22;108835;1275;21987;-79
2023/06/19 08:00:26;;;;;;;9.40;7.50;;;;;;;29.97;33.48;100433.27;108926;1279;22764;-81
2023/06/19 08:03:02;;;;;;;8.00;6.30;;;;;;;30.03;33.41;100432.17;109071;1265;22419;-89
2023/06/19 08:05:42;;;;;;;10.20;6.80;;;;;;;29.97;33.11;100429.64;109119;1279;22006;-88
2023/06/19 08:08:37;;;;;;;6.90;6.30;;;;;;;29.95;33.56;100428.60;109212;1273;21989;-89
2023/06/19 08:11:27;;;;;;;7.80;6.40;;;;;;;29.97;33.17;100429.30;109828;1270;23961;-87
2023/06/19 08:14:07;;;;;;;7.70;6.90;;;;;;;30.01;33.47;100429.36;110060;1270;21996;-84
2023/06/19 08:16:45;;;;;;;7.20;6.60;;;;;;;30.14;33.04;100432.46;109377;1275;22259;-86
2023/06/19 08:19:18;;;;;;;10.80;6.50;;;;;;;30.13;32.71;100434.77;109035;1279;21963;-86
2023/06/19 08:22:02;;;;;;;6.70;5.90;;;;;;;30.18;32.78;100436.84;109064;1278;23961;-86
2023/06/19 08:24:47;;;;;;;;;;;;;;;30.16;32.19;100436.55;108918;1276;22347;-88
2023/06/19 08:27:44;;;;;;;7.40;6.60;;;;;;;29.97;32.40;100434.98;109396;1276;22068;-86
2023/06/19 08:30:38;;;;;;;6.50;5.90;;;;;;;29.87;32.74;100438.71;109442;1276;22270;-85
2023/06/19 08:33:19;;;;;;;7.10;6.20;;;;;;;29.80;33.09;100438.34;109155;1276;23715;-91
2023/06/19 08:36:08;;;;;;;7.30;4.50;;;;;;;29.64;32.91;100440.70;109526;1272;24355;-87
2023/06/19 08:39:08;;;;;;;7.20;5.00;;;;;;;29.48;33.06;100439.34;110108;1270;21968;-89
2023/06/19 08:42:26;;;;;;;5.80;4.50;;;;;;;29.52;33.00;100438.98;109836;1270;21998;-87
2023/06/19 08:45:51;;;;;;;4.40;3.70;;;;;;;29.62;32.43;100436.08;109847;1270;23604;-88
2023/06/19 08:49:13;;;;;;;5.00;4.30;;;;;;;29.69;32.05;100433.30;109432;1275;21984;-87
2023/06/19 08:52:15;;;;;;;5.60;4.00;;;;;;;29.73;31.87;100436.98;109296;1275;21997;-88
2023/06/19 08:55:11;;;;;;;5.40;4.40;;;;;;;29.74;31.70;100435.39;109413;1280;21958;-87
2023/06/19 08:57:55;;;;;;;4.60;3.90;;;;;;;29.75;31.87;100423.80;109373;1274;23061;-89
2023/06/19 09:00:32;;;;;;;4.00;3.70;;;;;;;29.80;31.91;100423.20;109452;1276;21983;-85
2023/06/19 09:03:06;;;;;;;4.90;4.40;;;;;;;29.84;31.57;100418.12;109547;1276;21999;-87
2023/06/19 09:05:50;;;;;;;6.50;4.70;;;;;;;29.86;31.40;100414.40;109224;1277;23056;-86
2023/06/19 09:08:24;;;;;;;4.80;4.10;;;;;;;29.90;31.35;100417.52;109106;1275;23085;-83
2023/06/19 09:11:04;;;;;;;7.30;4.00;;;;;;;29.92;31.45;100415.16;109304;1277;22211;-90
2023/06/19 09:13:38;;;;;;;6.10;4.50;;;;;;;29.97;31.17;100413.30;109779;1271;21996;-86
2023/06/19 09:16:16;;;;;;;4.70;4.00;;;;;;;29.98;30.83;100411.98;109755;1272;22001;-88
2023/06/19 09:18:55;;;;;;;6.80;4.40;;;;;;;29.91;30.63;100411.74;109933;1255;23802;-85
2023/06/19 09:21:39;;;;;;;6.40;4.50;;;;;;;29.87;30.63;100410.91;110200;1266;22010;-87
2023/06/19 09:24:18;;;;;;;8.30;4.60;;;;;;;29.84;30.87;100401.99;110277;1262;23262;-82
2023/06/19 09:26:50;;;;;;;5.20;3.90;;;;;;;29.87;30.71;100408.61;109502;1271;22135;-83
2023/06/19 09:29:20;;;;;;;4.80;4.30;;;;;;;29.85;30.40;100405.19;109122;1281;21999;-84
2023/06/19 09:31:50;;;;;;;6.50;4.80;;;;;;;29.81;30.61;100406.58;108878;1284;22466;-83
2023/06/19 09:34:25;;;;;;;4.80;4.00;;;;;;;29.72;30.38;100406.05;108948;1284;23058;-83
2023/06/19 09:36:58;;;;;;;5.40;3.80;;;;;;;29.64;30.51;100398.37;108886;1284;22013;-83
2023/06/19 09:39:38;;;;;;;9.00;3.70;;;;;;;29.62;30.57;100395.98;108864;1284;21991;-83
2023/06/19 09:42:29;;;;;;;4.70;3.40;;;;;;;29.58;30.30;100397.11;108661;1286;21993;-82
2023/06/19 09:45:30;;;;;;;6.40;5.80;;;;;;;29.52;30.10;100397.83;108848;1284;22373;-84
2023/06/19 09:48:29;;;;;;;4.60;4.20;;;;;;;29.38;30.19;100396.27;109004;1281;22995;-85
2023/06/19 09:51:35;;;;;;;4.60;3.90;;;;;;;29.27;30.79;100397.27;109322;1277;22032;-83
2023/06/19 09:54:10;;;;;;;4.50;4.10;;;;;;;29.26;31.07;100396.75;108935;1282;21997;-83
2023/06/19 09:56:50;;;;;;;10.70;5.40;;;;;;;29.31;31.19;100394.83;108953;1280;22315;-87
2023/06/19 09:59:22;;;;;;;4.90;4.50;;;;;;;29.35;30.96;100397.26;108880;1281;24235;-82
2023/06/19 10:01:54;;;;;;;5.40;4.00;;;;;;;29.36;31.02;100392.30;109136;1281;23673;-83
2023/06/19 10:04:25;;;;;;;6.60;4.30;;;;;;;29.37;31.03;100392.44;108985;1281;23735;-84
2023/06/19 10:06:57;;;;;;;6.10;5.50;;;;;;;29.35;30.88;100392.24;109346;1276;21969;-83
2023/06/19 10:09:32;;;;;;;4.30;3.90;;;;;;;29.35;30.64;100388.64;108920;1276;22011;-84
2023/06/19 10:12:14;;;;;;;5.00;4.60;;;;;;;29.32;30.70;100383.84;109157;1275;22009;-83
2023/06/19 10:14:50;;;;;;;4.80;4.30;;;;;;;29.26;30.89;100382.05;108982;1282;22015;-83
2023/06/19 10:17:20;;;;;;;5.40;4.80;;;;;;;29.25;31.18;100382.52;109080;1279;22009;-83
2023/06/19 10:19:52;;;;;;;4.70;4.30;;;;;;;29.25;30.92;100381.60;109310;1279;22001;-81
2023/06/19 10:22:22;;;;;;;5.20;4.50;;;;;;;29.23;30.74;100381.84;108932;1284;22770;-81
2023/06/19 10:24:54;;;;;;;4.40;4.00;;;;;;;29.22;30.81;100376.83;108757;1283;22024;-83
2023/06/19 10:27:38;;;;;;;19.30;5.10;;;;;;;29.13;30.39;100370.21;108573;1283;22022;-84
2023/06/19 10:30:19;;;;;;;4.80;4.00;;;;;;;29.06;30.43;100369.82;108413;1287;22035;-81
2023/06/19 10:32:53;;;;;;;5.50;5.00;;;;;;;29.03;30.57;100369.73;108604;1282;21994;-83
2023/06/19 10:35:25;;;;;;;9.80;5.10;;;;;;;29.00;30.13;100370.70;109215;1276;22020;-83
2023/06/19 10:38:02;;;;;;;5.60;4.60;;;;;;;28.97;30.43;100369.53;108871;1282;21991;-88
2023/06/19 10:40:43;;;;;;;6.30;4.60;;;;;;;29.00;30.66;100371.98;109093;1277;21981;-87
2023/06/19 10:43:27;;;;;;;7.30;4.50;;;;;;;29.02;30.75;100375.28;109220;1277;22003;-87
2023/06/19 10:46:04;;;;;;;5.50;5.00;;;;;;;28.98;31.16;100369.13;109054;1277;21984;-80
2023/06/19 10:48:33;;;;;;;6.90;5.00;;;;;;;28.96;31.15;100361.27;109310;1273;21987;-81
2023/06/19 10:51:02;;;;;;;6.20;4.80;;;;;;;28.94;31.03;100371.41;109438;1273;22289;-82
2023/06/19 10:53:37;;;;;;;5.60;4.40;;;;;;;28.96;31.21;100375.13;109400;1273;22322;-81
2023/06/19 10:56:06;;;;;;;9.30;5.30;;;;;;;28.98;31.27;100364.42;110029;1266;21954;-82
2023/06/19 10:58:38;;;;;;;5.60;4.40;;;;;;;28.99;31.47;100368.15;110473;1266;22033;-82
2023/06/19 11:01:12;;;;;;;4.90;4.50;;;;;;;28.95;31.18;100359.61;110522;1263;22978;-80
2023/06/19 11:03:57;;;;;;;;;;;;;;;;;;;;;
2023/06/19 11:06:58;;;;;;;6.70;4.60;;;;;;;29.05;30.86;100363.85;110136;1264;22987;-81
2023/06/19 11:10:03;;;;;;;5.80;5.20;;;;;;;29.01;30.61;100366.98;109363;1275;23059;-81
2023/06/19 11:12:52;;;;;;;5.10;4.60;;;;;;;28.94;30.61;100369.09;109276;1274;22327;-82
2023/06/19 11:15:34;;;;;;;5.40;4.60;;;;;;;28.91;30.67;100371.15;108937;1280;22145;-82
2023/06/19 11:18:13;;;;;;;5.90;5.40;;;;;;;28.92;30.55;100368.89;108780;1283;23088;-81
2023/06/19 11:20:52;;;;;;;5.80;4.40;;;;;;;28.89;30.05;100367.44;108707;1284;21995;-82
2023/06/19 11:23:29;;;;;;;4.50;3.90;;;;;;;28.86;30.14;100361.24;108795;1283;21999;-81
2023/06/19 11:26:11;;;;;;;4.90;4.40;;;;;;;28.86;30.23;100358.48;108475;1283;22022;-82
2023/06/19 11:28:50;;;;;;;4.60;4.20;;;;;;;28.87;30.24;100357.35;108511;1286;23653;-81
2023/06/19 11:31:27;;;;;;;6.00;4.50;;;;;;;28.89;30.55;100359.21;108540;1280;22152;-81
2023/06/19 11:34:02;;;;;;;4.20;3.90;;;;;;;28.90;30.00;100356.83;108550;1286;23640;-84
2023/06/19 11:36:43;;;;;;;4.40;3.60;;;;;;;28.81;29.57;100357.61;108683;1283;23666;-83
2023/06/19 11:39:22;;;;;;;5.90;4.00;;;;;;;28.76;29.81;100346.06;108763;1278;22475;-84
2023/06/19 11:41:59;;;;;;;5.10;4.20;;;;;;;28.79;29.92;100349.43;108799;1280;23817;-83
2023/06/19 11:44:32;;;;;;;5.70;4.20;;;;;;;28.79;29.87;100340.13;108668;1281;22798;-83
2023/06/19 11:47:10;;;;;;;5.30;4.30;;;;;;;28.84;29.89;100342.86;108944;1276;21998;-81
2023/06/19 11:49:43;;;;;;;7.20;5.30;;;;;;;28.86;30.26;100335.73;109379;1275;22168;-82
2023/06/19 11:52:28;;;;;;;5.20;4.70;;;;;;;28.96;30.35;100337.14;109319;1271;22006;-83
2023/06/19 11:55:06;;;;;;;4.80;4.30;;;;;;;29.06;29.88;100339.31;109361;1275;21982;-83
2023/06/19 11:58:02;;;;;;;5.30;3.60;;;;;;;29.12;29.29;100334.19;108960;1279;22000;-82
2023/06/19 12:00:39;;;;;;;5.20;3.90;;;;;;;29.14;29.27;100340.59;109174;1274;21984;-84
2023/06/19 12:03:16;;;;;;;5.40;4.90;;;;;;;29.20;29.34;100343.81;109471;1271;23052;-84
2023/06/19 12:05:51;;;;;;;4.40;4.00;;;;;;;29.24;29.31;100342.44;109746;1271;22007;-84